createdAt,value
2024-04-18T00:01:40.091Z,94.15
2024-04-18T00:04:11.802Z,94.07
2024-04-18T00:06:44.041Z,94.35
2024-04-18T00:09:16.252Z,95.07
2024-04-18T00:11:48.255Z,95.43
2024-04-18T00:14:19.807Z,95.32
2024-04-18T00:16:51.562Z,95.99
2024-04-18T00:19:23.012Z,95.45
2024-04-18T00:22:02.111Z,95.67
2024-04-18T00:24:33.884Z,95.77
2024-04-18T00:27:28.046Z,95.79
2024-04-18T00:29:59.771Z,95.80
2024-04-18T00:32:31.691Z,96.25
2024-04-18T00:35:21.731Z,96.72
2024-04-18T00:37:53.462Z,97.22
2024-04-18T00:40:45.710Z,96.96
2024-04-18T00:43:24.210Z,95.68
2024-04-18T00:45:59.768Z,94.95
2024-04-18T00:48:31.700Z,94.61
2024-04-18T00:51:05.294Z,94.69
2024-04-18T00:53:37.024Z,95.34
2024-04-18T00:56:38.606Z,95.72
2024-04-18T00:59:29.695Z,96.69
2024-04-18T01:02:21.956Z,97.68
2024-04-18T01:05:14.569Z,97.79
2024-04-18T01:07:49.145Z,96.24
2024-04-18T01:10:26.426Z,95.93
2024-04-18T01:13:02.270Z,96.64
2024-04-18T01:15:52.399Z,97.13
2024-04-18T01:18:25.428Z,96.17
2024-04-18T01:21:17.288Z,96.70
2024-04-18T01:23:48.973Z,96.21
2024-04-18T01:26:22.926Z,95.83
2024-04-18T01:28:54.648Z,95.79
2024-04-18T01:31:36.880Z,94.91
2024-04-18T01:34:08.705Z,94.36
2024-04-18T01:36:40.281Z,94.18
2024-04-18T01:39:31.744Z,93.72
2024-04-18T01:42:12.400Z,93.81
2024-04-18T01:44:47.912Z,93.41
2024-04-18T01:47:38.115Z,93.45
2024-04-18T01:50:12.691Z,93.81
2024-04-18T01:52:44.390Z,93.58
2024-04-18T01:55:16.930Z,93.59
2024-04-18T01:57:48.638Z,93.40
2024-04-18T02:00:37.869Z,93.33
2024-04-18T02:03:09.399Z,92.93
2024-04-18T02:05:47.508Z,92.90
2024-04-18T02:08:19.128Z,93.01
2024-04-18T02:10:52.117Z,92.41
2024-04-18T02:13:42.320Z,92.50
2024-04-18T02:16:13.907Z,92.44
2024-04-18T02:18:51.730Z,92.81
2024-04-18T02:21:23.442Z,92.93
2024-04-18T02:23:57.739Z,92.92
2024-04-18T02:26:29.432Z,93.22
2024-04-18T02:29:01.237Z,92.95
2024-04-18T02:31:33.089Z,93.32
2024-04-18T02:34:05.195Z,93.44
2024-04-18T02:36:52.319Z,92.88
2024-04-18T02:39:23.979Z,93.23
2024-04-18T02:41:55.495Z,93.20
2024-04-18T02:44:53.264Z,93.26
2024-04-18T02:47:24.764Z,93.42
2024-04-18T02:50:10.088Z,93.96
2024-04-18T02:52:41.746Z,93.83
2024-04-18T02:55:23.287Z,94.03
2024-04-18T02:58:00.996Z,94.17
2024-04-18T03:00:32.655Z,94.79
2024-04-18T03:03:13.047Z,94.45
2024-04-18T03:06:13.781Z,94.68
2024-04-18T03:08:46.825Z,94.20
2024-04-18T03:11:21.670Z,94.53
2024-04-18T03:14:12.119Z,94.63
2024-04-18T03:16:43.735Z,94.83
2024-04-18T03:19:24.616Z,94.47
2024-04-18T03:21:59.022Z,94.01
2024-04-18T03:24:30.831Z,94.37
2024-04-18T03:27:02.882Z,94.25
2024-04-18T03:29:35.189Z,94.05
2024-04-18T03:32:07.945Z,93.78
2024-04-18T03:34:51.153Z,94.14
2024-04-18T03:37:22.781Z,94.49
2024-04-18T03:39:54.469Z,94.70
2024-04-18T03:42:26.082Z,94.32
2024-04-18T03:44:58.280Z,94.40
2024-04-18T03:47:29.992Z,94.28
2024-04-18T03:50:14.058Z,94.00
2024-04-18T03:52:45.897Z,94.02
2024-04-18T03:55:36.099Z,94.17
2024-04-18T03:58:07.856Z,93.92
2024-04-18T04:00:54.322Z,94.21
2024-04-18T04:03:26.152Z,93.98
2024-04-18T04:05:57.821Z,93.99
2024-04-18T04:08:29.497Z,94.22
2024-04-18T04:11:33.014Z,94.52
2024-04-18T04:14:06.453Z,94.03
2024-04-18T04:16:57.788Z,93.75
2024-04-18T04:19:29.528Z,93.93
2024-04-18T04:22:01.682Z,94.07
2024-04-18T04:24:33.531Z,94.10
2024-04-18T04:27:25.243Z,94.16
2024-04-18T04:29:56.927Z,93.99
2024-04-18T04:32:28.577Z,94.12
2024-04-18T04:35:00.264Z,94.28
2024-04-18T04:37:31.825Z,94.15
2024-04-18T04:40:03.482Z,94.35
2024-04-18T04:42:36.482Z,94.12
2024-04-18T04:45:08.889Z,94.53
2024-04-18T04:47:40.486Z,94.86
2024-04-18T04:50:41.825Z,95.02
2024-04-18T04:53:18.909Z,94.76
2024-04-18T04:56:05.785Z,94.67
2024-04-18T04:58:37.736Z,94.57
2024-04-18T05:01:09.517Z,94.22
2024-04-18T05:03:41.567Z,94.28
2024-04-18T05:06:28.951Z,94.13
2024-04-18T05:09:21.534Z,94.36
2024-04-18T05:11:53.267Z,94.33
2024-04-18T05:14:40.178Z,94.12
2024-04-18T05:17:37.396Z,94.12
2024-04-18T05:20:17.982Z,94.20
2024-04-18T05:22:50.040Z,94.02
2024-04-18T05:25:21.623Z,93.94
2024-04-18T05:28:05.520Z,93.81
2024-04-18T05:30:58.781Z,93.86
2024-04-18T05:33:30.780Z,93.91
2024-04-18T05:36:03.229Z,93.91
2024-04-18T05:38:34.942Z,93.71
2024-04-18T05:41:07.024Z,93.59
2024-04-18T05:43:54.040Z,93.76
2024-04-18T05:46:25.708Z,93.72
2024-04-18T05:48:57.747Z,93.98
2024-04-18T05:51:29.774Z,93.80
2024-04-18T05:54:21.628Z,94.46
2024-04-18T05:57:11.405Z,94.20
2024-04-18T05:59:55.471Z,93.86
2024-04-18T06:02:27.513Z,93.80
2024-04-18T06:04:59.114Z,93.74
2024-04-18T06:07:49.350Z,94.02
2024-04-18T06:10:20.950Z,93.83
2024-04-18T06:12:52.745Z,94.22
2024-04-18T06:15:24.658Z,94.11
2024-04-18T06:17:56.475Z,94.54
2024-04-18T06:20:28.454Z,94.36
2024-04-18T06:23:00.243Z,94.35
2024-04-18T06:25:32.351Z,94.60
2024-04-18T06:28:04.319Z,94.75
2024-04-18T06:30:36.080Z,94.40
2024-04-18T06:33:08.210Z,94.14
2024-04-18T06:35:39.775Z,93.59
2024-04-18T06:38:11.436Z,93.91
2024-04-18T06:40:44.081Z,93.73
2024-04-18T06:43:15.949Z,93.82
2024-04-18T06:45:48.273Z,93.32
2024-04-18T06:48:20.018Z,93.79
2024-04-18T06:50:52.171Z,93.76
2024-04-18T06:53:23.936Z,93.67
2024-04-18T06:55:56.562Z,93.09
2024-04-18T06:58:28.325Z,93.01
2024-04-18T07:01:00.771Z,93.17
2024-04-18T07:03:33.265Z,92.71
2024-04-18T07:06:06.178Z,92.89
2024-04-18T07:08:37.958Z,92.63
2024-04-18T07:11:10.665Z,92.36
2024-04-18T07:13:42.306Z,92.41
2024-04-18T07:16:32.636Z,92.28
2024-04-18T07:19:24.404Z,92.23
2024-04-18T07:22:00.230Z,92.50
2024-04-18T07:24:52.009Z,91.62
2024-04-18T07:27:23.781Z,91.78
2024-04-18T07:29:55.611Z,91.82
2024-04-18T07:32:47.286Z,91.53
2024-04-18T07:35:19.298Z,91.87
2024-04-18T07:37:52.807Z,91.59
2024-04-18T07:40:24.959Z,91.57
2024-04-18T07:42:56.670Z,91.32
2024-04-18T07:45:29.779Z,91.25
2024-04-18T07:48:01.508Z,91.06
2024-04-18T07:50:33.078Z,90.91
2024-04-18T07:53:09.748Z,90.36
2024-04-18T07:55:44.316Z,90.63
2024-04-18T07:58:16.126Z,90.76
2024-04-18T08:00:53.936Z,90.54
2024-04-18T08:03:28.682Z,90.28
2024-04-18T08:08:35.348Z,90.04
2024-04-18T08:11:39.897Z,89.94
2024-04-18T08:14:05.176Z,89.34
2024-04-18T08:16:39.511Z,89.23
2024-04-18T08:19:11.294Z,88.81
2024-04-18T08:21:42.959Z,89.14
2024-04-18T08:24:22.735Z,88.40
2024-04-18T08:26:54.673Z,87.51
2024-04-18T08:29:27.970Z,86.93
2024-04-18T08:31:59.692Z,87.01
2024-04-18T08:34:35.479Z,86.77
2024-04-18T08:37:08.370Z,86.62
2024-04-18T08:39:40.785Z,85.74
2024-04-18T08:42:14.040Z,85.39
2024-04-18T08:44:46.055Z,84.99
2024-04-18T08:47:19.070Z,84.80
2024-04-18T08:49:53.152Z,84.98
2024-04-18T08:52:25.417Z,84.11
2024-04-18T08:54:57.251Z,84.05
2024-04-18T08:57:31.451Z,83.40
2024-04-18T09:00:06.528Z,82.25
2024-04-18T09:02:38.547Z,82.25
2024-04-18T09:05:11.243Z,82.08
2024-04-18T09:07:43.150Z,79.58
2024-04-18T09:10:17.157Z,80.56
2024-04-18T09:12:49.895Z,79.11
2024-04-18T09:15:23.901Z,79.50
2024-04-18T09:18:06.964Z,77.31
2024-04-18T09:20:40.800Z,77.37
2024-04-18T09:23:12.303Z,76.82
2024-04-18T09:25:45.944Z,76.34
2024-04-18T09:28:22.205Z,76.68
2024-04-18T09:30:57.344Z,75.42
2024-04-18T09:33:29.584Z,73.61
2024-04-18T09:36:02.738Z,72.65
2024-04-18T09:38:36.241Z,71.94
2024-04-18T09:41:13.654Z,73.18
2024-04-18T09:43:53.605Z,71.50
2024-04-18T09:46:27.461Z,71.52
2024-04-18T09:49:00.103Z,71.91
2024-04-18T09:51:32.311Z,71.51
2024-04-18T09:54:06.182Z,71.57
2024-04-18T09:56:39.620Z,71.26
2024-04-18T09:59:13.861Z,70.79
2024-04-18T10:01:46.062Z,70.10
2024-04-18T10:04:18.070Z,70.49
2024-04-18T10:06:51.614Z,70.62
2024-04-18T10:09:27.145Z,70.27
2024-04-18T10:11:58.977Z,70.91
2024-04-18T10:14:31.753Z,70.97
2024-04-18T10:17:04.652Z,69.26
2024-04-18T10:19:36.568Z,69.49
2024-04-18T10:22:24.008Z,70.18
2024-04-18T10:25:17.863Z,69.28
2024-04-18T10:27:50.080Z,69.08
2024-04-18T10:30:27.593Z,67.79
2024-04-18T10:32:59.425Z,68.07
2024-04-18T10:35:32.847Z,68.05
2024-04-18T10:38:05.002Z,67.46
2024-04-18T10:40:37.061Z,67.03
2024-04-18T10:43:17.530Z,66.18
2024-04-18T10:45:52.386Z,63.49
2024-04-18T10:48:24.886Z,61.94
2024-04-18T10:50:56.725Z,61.69
2024-04-18T10:53:29.703Z,61.01
2024-04-18T10:56:02.159Z,58.97
2024-04-18T10:58:33.876Z,59.97
2024-04-18T11:01:06.110Z,58.94
2024-04-18T11:03:38.021Z,57.80
2024-04-18T11:06:10.366Z,59.22
2024-04-18T11:08:42.047Z,59.66
2024-04-18T11:11:16.738Z,59.31
2024-04-18T11:13:50.632Z,58.51
2024-04-18T11:16:22.597Z,60.05
2024-04-18T11:18:54.371Z,59.69
2024-04-18T11:21:27.617Z,60.64
2024-04-18T11:23:59.895Z,60.32
2024-04-18T11:26:33.540Z,60.95
2024-04-18T11:29:05.229Z,61.09
2024-04-18T11:31:38.217Z,62.69
2024-04-18T11:34:10.206Z,63.30
2024-04-18T11:36:43.111Z,64.53
2024-04-18T11:39:15.678Z,65.62
2024-04-18T11:41:47.569Z,66.08
2024-04-18T11:44:19.242Z,66.30
2024-04-18T11:46:53.202Z,66.14
2024-04-18T11:49:24.984Z,65.01
2024-04-18T11:51:57.878Z,64.20
2024-04-18T11:54:29.729Z,63.57
2024-04-18T11:57:01.339Z,62.55
2024-04-18T11:59:41.288Z,62.22
2024-04-18T12:02:13.250Z,62.36
2024-04-18T12:04:57.083Z,60.98
2024-04-18T12:07:28.992Z,59.45
2024-04-18T12:10:00.883Z,60.64
2024-04-18T12:12:33.417Z,59.22
2024-04-18T12:15:25.124Z,59.27
2024-04-18T12:17:56.690Z,60.17
2024-04-18T12:20:28.561Z,60.47
2024-04-18T12:23:00.475Z,59.93
2024-04-18T12:25:32.257Z,59.72
2024-04-18T12:28:04.051Z,59.09
2024-04-18T12:30:36.226Z,58.97
2024-04-18T12:33:24.044Z,56.11
2024-04-18T12:35:56.179Z,56.53
2024-04-18T12:38:27.960Z,56.89
2024-04-18T12:41:06.292Z,56.78
2024-04-18T12:43:38.481Z,57.55
2024-04-18T12:46:29.516Z,57.81
2024-04-18T12:49:01.779Z,58.22
2024-04-18T12:51:35.884Z,58.19
2024-04-18T12:54:07.980Z,58.65
2024-04-18T12:56:52.082Z,59.27
2024-04-18T12:59:26.868Z,59.88
2024-04-18T13:01:58.567Z,59.50
2024-04-18T13:04:32.751Z,58.47
2024-04-18T13:07:05.239Z,57.68
2024-04-18T13:09:37.417Z,57.33
2024-04-18T13:12:09.715Z,57.37
2024-04-18T13:15:00.556Z,53.33
2024-04-18T13:17:32.354Z,49.90
2024-04-18T13:20:04.826Z,50.94
2024-04-18T13:22:36.831Z,49.46
2024-04-18T13:25:09.335Z,47.47
2024-04-18T13:27:44.676Z,47.45
2024-04-18T13:30:36.530Z,47.66
2024-04-18T13:33:08.634Z,47.64
2024-04-18T13:35:40.551Z,49.28
2024-04-18T13:38:12.370Z,48.71
2024-04-18T13:40:57.904Z,49.67
2024-04-18T13:43:37.523Z,49.75
2024-04-18T13:46:12.166Z,51.67
2024-04-18T13:49:04.356Z,54.29
2024-04-18T13:51:36.148Z,57.14
2024-04-18T13:54:27.814Z,59.88
2024-04-18T13:56:59.518Z,61.73
2024-04-18T13:59:50.650Z,61.04
2024-04-18T14:02:41.089Z,59.36
2024-04-18T14:05:21.659Z,56.10
2024-04-18T14:08:09.134Z,52.52
2024-04-18T14:10:40.588Z,51.07
2024-04-18T14:13:30.868Z,47.33
2024-04-18T14:16:20.737Z,48.34
2024-04-18T14:18:59.037Z,47.53
2024-04-18T14:21:39.981Z,48.02
2024-04-18T14:24:12.081Z,47.70
2024-04-18T14:27:02.000Z,45.07
2024-04-18T14:29:34.058Z,43.86
2024-04-18T14:32:06.489Z,45.24
2024-04-18T14:34:57.234Z,43.34
2024-04-18T14:37:29.527Z,43.30
2024-04-18T14:40:01.476Z,42.56
2024-04-18T14:42:33.235Z,42.80
2024-04-18T14:45:05.595Z,44.81
2024-04-18T14:47:37.307Z,44.23
2024-04-18T14:50:10.089Z,45.72
2024-04-18T14:52:41.777Z,47.29
2024-04-18T14:55:32.231Z,48.13
2024-04-18T14:58:06.974Z,49.10
2024-04-18T15:00:55.097Z,50.76
2024-04-18T15:03:27.443Z,54.08
2024-04-18T15:06:19.454Z,56.92
2024-04-18T15:09:11.550Z,60.25
2024-04-18T15:12:00.415Z,64.12
2024-04-18T15:14:44.309Z,65.57
2024-04-18T15:17:16.356Z,65.34
2024-04-18T15:19:48.100Z,64.12
2024-04-18T15:22:39.273Z,57.75
2024-04-18T15:25:29.057Z,54.31
2024-04-18T15:28:00.773Z,49.42
2024-04-18T15:30:32.590Z,45.77
2024-04-18T15:33:23.054Z,41.22
2024-04-18T15:35:55.340Z,40.59
2024-04-18T15:38:26.937Z,41.73
2024-04-18T15:41:17.079Z,44.12
2024-04-18T15:43:48.811Z,46.93
2024-04-18T15:46:38.978Z,48.51
2024-04-18T15:49:15.397Z,49.45
2024-04-18T15:51:50.498Z,50.15
2024-04-18T15:54:22.182Z,51.39
2024-04-18T15:56:53.835Z,53.05
2024-04-18T15:59:45.766Z,54.31
2024-04-18T16:02:17.319Z,55.31
2024-04-18T16:04:49.301Z,56.34
2024-04-18T16:07:20.997Z,56.84
2024-04-18T16:10:18.571Z,57.25
2024-04-18T16:12:59.349Z,58.09
2024-04-18T16:15:31.887Z,58.33
2024-04-18T16:18:07.705Z,59.27
2024-04-18T16:20:58.652Z,60.55
2024-04-18T16:23:43.694Z,61.18
2024-04-18T16:26:15.562Z,61.85
2024-04-18T16:28:47.057Z,62.31
2024-04-18T16:31:18.730Z,68.78
2024-04-18T16:33:50.262Z,72.31
2024-04-18T16:36:32.082Z,70.01
2024-04-18T16:39:12.959Z,66.43
2024-04-18T16:41:46.004Z,70.93
2024-04-18T16:44:18.935Z,68.70
2024-04-18T16:46:50.679Z,69.01
2024-04-18T16:49:22.481Z,67.92
2024-04-18T16:51:54.318Z,67.90
2024-04-18T16:54:31.488Z,66.47
2024-04-18T16:57:06.267Z,67.10
2024-04-18T16:59:50.405Z,67.04
2024-04-18T17:02:22.164Z,67.06
2024-04-18T17:04:54.111Z,68.06
2024-04-18T17:07:25.585Z,67.83
2024-04-18T17:10:16.242Z,68.74
2024-04-18T17:13:07.009Z,70.56
2024-04-18T17:16:05.805Z,69.61
2024-04-18T17:18:37.754Z,69.32
2024-04-18T17:21:09.495Z,70.90
2024-04-18T17:23:41.477Z,69.87
2024-04-18T17:26:13.673Z,70.82
2024-04-18T17:28:46.472Z,70.37
2024-04-18T17:31:39.069Z,70.53
2024-04-18T17:34:10.480Z,70.65
2024-04-18T17:36:48.303Z,73.14
2024-04-18T17:39:40.117Z,73.81
2024-04-18T17:42:11.841Z,73.23
2024-04-18T17:45:01.588Z,73.53
2024-04-18T17:47:36.133Z,72.78
2024-04-18T17:50:09.371Z,72.29
2024-04-18T17:52:45.340Z,72.19
2024-04-18T17:55:17.577Z,72.20
2024-04-18T17:57:49.243Z,73.00
2024-04-18T18:00:26.949Z,76.50
2024-04-18T18:02:58.910Z,75.02
2024-04-18T18:05:43.516Z,77.04
2024-04-18T18:08:33.606Z,75.83
2024-04-18T18:11:23.926Z,74.90
2024-04-18T18:13:58.455Z,74.51
2024-04-18T18:16:31.758Z,73.61
2024-04-18T18:19:03.582Z,77.32
2024-04-18T18:21:41.273Z,79.38
2024-04-18T18:24:15.917Z,79.10
2024-04-18T18:26:47.642Z,79.10
2024-04-18T18:29:19.484Z,78.08
2024-04-18T18:32:14.305Z,78.24
2024-04-18T18:34:48.110Z,80.08
2024-04-18T18:37:20.243Z,77.29
2024-04-18T18:40:13.457Z,78.34
2024-04-18T18:42:46.025Z,79.37
2024-04-18T18:45:17.839Z,81.02
2024-04-18T18:47:49.828Z,80.23
2024-04-18T18:50:24.970Z,82.46
2024-04-18T18:52:56.866Z,84.01
2024-04-18T18:55:46.834Z,82.57
2024-04-18T18:58:21.089Z,83.37
2024-04-18T19:00:52.844Z,83.75
2024-04-18T19:03:24.639Z,81.89
2024-04-18T19:05:56.238Z,80.15
2024-04-18T19:08:28.280Z,81.13
2024-04-18T19:11:02.666Z,81.66
2024-04-18T19:13:34.390Z,81.36
2024-04-18T19:16:06.558Z,81.88
2024-04-18T19:18:38.553Z,82.16
2024-04-18T19:21:10.441Z,82.58
2024-04-18T19:23:43.057Z,82.04
2024-04-18T19:26:14.659Z,81.69
2024-04-18T19:28:46.301Z,80.91
2024-04-18T19:31:20.098Z,81.01
2024-04-18T19:33:51.792Z,79.43
2024-04-18T19:36:24.079Z,81.25
2024-04-18T19:38:55.649Z,82.42
2024-04-18T19:41:30.294Z,80.96
2024-04-18T19:44:01.923Z,79.58
2024-04-18T19:46:33.609Z,80.21
2024-04-18T19:49:14.603Z,79.99
2024-04-18T19:52:02.627Z,79.73
2024-04-18T19:54:36.944Z,79.22
2024-04-18T19:57:09.225Z,79.64
2024-04-18T19:59:41.534Z,80.21
2024-04-18T20:02:14.496Z,80.09
2024-04-18T20:04:46.508Z,79.50
2024-04-18T20:07:18.280Z,80.89
2024-04-18T20:09:49.927Z,80.84
2024-04-18T20:12:21.832Z,81.00
2024-04-18T20:15:11.948Z,80.65
2024-04-18T20:17:44.191Z,81.82
2024-04-18T20:20:16.744Z,81.09
2024-04-18T20:22:48.700Z,81.56
2024-04-18T20:25:29.239Z,82.29
2024-04-18T20:28:00.866Z,83.27
2024-04-18T20:30:32.663Z,81.60
2024-04-18T20:33:10.521Z,82.83
2024-04-18T20:35:42.374Z,83.72
2024-04-18T20:38:13.788Z,83.34
2024-04-18T20:40:45.344Z,83.69
2024-04-18T20:43:16.835Z,83.71
2024-04-18T20:45:50.068Z,83.19
2024-04-18T20:48:21.815Z,82.49
2024-04-18T20:50:53.504Z,82.85
2024-04-18T20:53:25.147Z,83.80
2024-04-18T20:55:56.885Z,83.77
2024-04-18T20:58:28.541Z,82.77
2024-04-18T21:01:00.777Z,82.19
2024-04-18T21:03:32.741Z,82.29
2024-04-18T21:06:04.640Z,82.25
2024-04-18T21:08:36.617Z,83.34
2024-04-18T21:11:08.411Z,83.67
2024-04-18T21:13:40.012Z,83.36
2024-04-18T21:16:11.771Z,84.57
2024-04-18T21:18:43.463Z,84.12
2024-04-18T21:21:15.099Z,83.80
2024-04-18T21:23:46.763Z,84.62
2024-04-18T21:26:18.754Z,84.30
2024-04-18T21:28:51.408Z,83.85
2024-04-18T21:31:41.423Z,84.78
2024-04-18T21:34:14.036Z,84.22
2024-04-18T21:36:45.771Z,85.08
2024-04-18T21:39:17.500Z,84.37
2024-04-18T21:41:49.656Z,83.89
2024-04-18T21:44:21.634Z,83.49
2024-04-18T21:46:53.202Z,84.18
2024-04-18T21:49:25.487Z,84.35
2024-04-18T21:51:57.247Z,83.74
2024-04-18T21:54:29.262Z,85.15
2024-04-18T21:57:03.076Z,85.15
2024-04-18T21:59:36.508Z,84.03
2024-04-18T22:02:08.522Z,83.92
2024-04-18T22:04:40.075Z,84.96
2024-04-18T22:07:11.611Z,85.86
2024-04-18T22:09:43.301Z,85.68
2024-04-18T22:12:15.332Z,86.29
2024-04-18T22:14:47.016Z,88.02
2024-04-18T22:17:18.452Z,88.18
2024-04-18T22:19:50.225Z,87.79
2024-04-18T22:22:22.677Z,86.10
2024-04-18T22:24:54.308Z,85.81
2024-04-18T22:27:25.987Z,85.90
2024-04-18T22:29:57.649Z,87.67
2024-04-18T22:32:29.574Z,86.94
2024-04-18T22:35:01.489Z,87.41
2024-04-18T22:37:39.146Z,88.99
2024-04-18T22:40:12.061Z,88.19
2024-04-18T22:42:43.945Z,87.48
2024-04-18T22:45:15.604Z,88.12
2024-04-18T22:47:47.690Z,88.18
2024-04-18T22:50:19.200Z,89.29
2024-04-18T22:52:50.672Z,89.02
2024-04-18T22:55:22.462Z,90.45
2024-04-18T22:57:54.046Z,90.13
2024-04-18T23:00:25.928Z,90.25
2024-04-18T23:02:57.699Z,90.17
2024-04-18T23:05:42.024Z,90.34
2024-04-18T23:08:13.599Z,90.97
2024-04-18T23:10:46.043Z,90.97
2024-04-18T23:13:18.240Z,89.66
2024-04-18T23:15:49.759Z,88.01
2024-04-18T23:18:21.621Z,88.00
2024-04-18T23:20:55.369Z,87.97
2024-04-18T23:23:37.710Z,88.34
2024-04-18T23:26:09.185Z,88.14
2024-04-18T23:28:40.841Z,87.32
2024-04-18T23:31:12.603Z,87.22
2024-04-18T23:33:44.407Z,86.58
2024-04-18T23:36:16.178Z,86.36
2024-04-18T23:38:47.830Z,86.50
2024-04-18T23:41:19.425Z,86.69
2024-04-18T23:43:51.290Z,87.67
2024-04-18T23:46:22.924Z,87.85
2024-04-18T23:48:54.673Z,88.02
2024-04-18T23:51:26.586Z,88.83
2024-04-18T23:53:58.130Z,89.95
2024-04-18T23:56:29.731Z,91.28
2024-04-18T23:59:01.486Z,91.87
